createdAt,value
2023-05-01T00:00:53.490Z,3.42
2023-05-01T00:04:36.524Z,3.15
2023-05-01T00:08:22.227Z,3.10
2023-05-01T00:12:05.316Z,4.00
2023-05-01T00:19:29.161Z,3.85
2023-05-01T00:23:12.452Z,4.00
2023-05-01T00:26:54.236Z,2.80
2023-05-01T00:30:36.612Z,3.83
2023-05-01T00:34:21.570Z,3.60
2023-05-01T00:38:04.142Z,3.58
2023-05-01T00:41:45.826Z,3.88
2023-05-01T00:45:27.723Z,3.88
2023-05-01T00:49:10.125Z,4.40
2023-05-01T00:52:55.637Z,5.57
2023-05-01T00:56:38.213Z,4.65
2023-05-01T01:00:22.750Z,4.20
2023-05-01T01:04:05.920Z,3.83
2023-05-01T01:07:51.272Z,4.90
2023-05-01T01:11:49.784Z,4.35
2023-05-01T01:15:44.872Z,4.18
2023-05-01T01:20:15.985Z,4.30
2023-05-01T01:24:29.542Z,4.07
2023-05-01T01:28:35.067Z,4.00
2023-05-01T01:32:53.811Z,4.07
2023-05-01T01:37:25.137Z,4.68
2023-05-01T01:41:20.155Z,4.13
2023-05-01T01:45:42.069Z,3.67
2023-05-01T01:49:26.585Z,5.22
2023-05-01T01:53:14.412Z,3.90
2023-05-01T01:57:02.888Z,4.47
2023-05-01T02:00:46.056Z,4.50
2023-05-01T02:04:28.813Z,4.00
2023-05-01T02:08:13.207Z,4.72
2023-05-01T02:11:56.058Z,5.03
2023-05-01T02:15:40.437Z,4.30
2023-05-01T02:19:23.530Z,3.95
2023-05-01T02:23:07.743Z,3.70
2023-05-01T02:26:55.264Z,5.18
2023-05-01T02:30:39.043Z,3.92
2023-05-01T02:34:21.398Z,3.28
2023-05-01T02:38:03.293Z,3.87
2023-05-01T02:41:46.528Z,4.40
2023-05-01T02:49:13.458Z,4.93
2023-05-01T02:52:56.456Z,5.72
2023-05-01T02:56:38.763Z,3.78
2023-05-01T03:00:20.801Z,5.93
2023-05-01T03:04:02.650Z,4.13
2023-05-01T03:07:44.565Z,4.47
2023-05-01T03:11:26.330Z,4.07
2023-05-01T03:15:08.715Z,3.85
2023-05-01T03:18:50.460Z,4.10
2023-05-01T03:22:33.229Z,3.83
2023-05-01T03:26:15.044Z,4.05
2023-05-01T03:29:57.520Z,4.32
2023-05-01T03:33:40.147Z,5.78
2023-05-01T03:37:21.970Z,6.15
2023-05-01T03:41:05.250Z,5.75
2023-05-01T03:48:28.720Z,4.80
2023-05-01T03:52:11.867Z,3.92
2023-05-01T03:55:53.602Z,4.70
2023-05-01T03:59:35.662Z,4.53
2023-05-01T04:03:17.841Z,5.95
2023-05-01T04:07:00.088Z,8.13
2023-05-01T04:10:41.792Z,6.80
2023-05-01T04:14:23.935Z,6.32
2023-05-01T04:18:05.802Z,7.40
2023-05-01T04:21:47.517Z,8.30
2023-05-01T04:25:29.421Z,7.20
2023-05-01T04:29:11.187Z,6.03
2023-05-01T04:32:52.950Z,5.93
2023-05-01T04:36:34.710Z,5.63
2023-05-01T04:40:16.425Z,5.10
2023-05-01T04:43:58.336Z,4.68
2023-05-01T04:47:40.127Z,4.20
2023-05-01T04:51:22.473Z,4.95
2023-05-01T04:55:04.540Z,4.50
2023-05-01T04:58:46.343Z,3.78
2023-05-01T05:02:28.210Z,4.53
2023-05-01T05:06:10.105Z,4.30
2023-05-01T05:09:51.929Z,3.90
2023-05-01T05:13:33.668Z,4.97
2023-05-01T05:17:15.388Z,4.13
2023-05-01T05:20:57.098Z,4.20
2023-05-01T05:24:39.131Z,4.57
2023-05-01T05:28:20.837Z,4.13
2023-05-01T05:32:02.708Z,4.63
2023-05-01T05:35:44.718Z,3.63
2023-05-01T05:39:26.440Z,4.78
2023-05-01T05:43:08.727Z,4.10
2023-05-01T05:46:50.630Z,4.40
2023-05-01T05:50:32.337Z,4.00
2023-05-01T05:54:14.168Z,4.35
2023-05-01T05:57:55.892Z,4.43
2023-05-01T06:01:37.802Z,4.82
2023-05-01T06:05:19.672Z,4.40
2023-05-01T06:09:02.974Z,4.30
2023-05-01T06:12:46.311Z,4.28
2023-05-01T06:16:41.525Z,4.78
2023-05-01T06:20:23.279Z,4.80
2023-05-01T06:24:05.278Z,5.47
2023-05-01T06:27:47.007Z,4.47
2023-05-01T06:31:29.033Z,5.20
2023-05-01T06:35:10.778Z,5.78
2023-05-01T06:38:52.471Z,6.53
2023-05-01T06:42:34.262Z,5.63
2023-05-01T06:46:16.260Z,6.47
2023-05-01T06:49:58.120Z,6.15
2023-05-01T06:53:41.534Z,6.50
2023-05-01T06:57:23.601Z,6.68
2023-05-01T07:01:05.486Z,6.63
2023-05-01T07:04:47.344Z,5.90
2023-05-01T07:08:29.134Z,5.50
2023-05-01T07:12:10.941Z,7.00
2023-05-01T07:15:54.634Z,6.55
2023-05-01T07:19:36.498Z,6.45
2023-05-01T07:23:18.247Z,6.82
2023-05-01T07:27:00.133Z,7.10
2023-05-01T07:30:41.964Z,7.57
2023-05-01T07:34:23.874Z,8.45
2023-05-01T07:38:05.636Z,8.00
2023-05-01T07:41:47.501Z,8.00
2023-05-01T07:45:29.232Z,7.78
2023-05-01T07:49:10.932Z,7.60
2023-05-01T07:52:52.723Z,6.57
2023-05-01T07:56:34.427Z,5.55
2023-05-01T08:00:17.011Z,5.30
2023-05-01T08:03:58.841Z,5.40
2023-05-01T08:07:40.602Z,5.20
2023-05-01T08:11:22.832Z,4.88
2023-05-01T08:15:05.296Z,4.45
2023-05-01T08:18:49.965Z,4.53
2023-05-01T08:22:32.091Z,5.07
2023-05-01T08:26:13.832Z,4.80
2023-05-01T08:29:55.931Z,4.15
2023-05-01T08:33:37.897Z,4.00
2023-05-01T08:37:19.664Z,4.28
2023-05-01T08:41:03.357Z,3.50
2023-05-01T08:44:47.901Z,3.30
2023-05-01T08:48:30.171Z,2.83
2023-05-01T08:52:13.378Z,3.20
2023-05-01T08:55:57.435Z,3.35
2023-05-01T08:59:40.488Z,3.33
2023-05-01T09:03:22.748Z,2.70
2023-05-01T09:07:05.472Z,3.03
2023-05-01T09:10:49.413Z,2.97
2023-05-01T09:14:31.877Z,2.70
2023-05-01T09:18:13.696Z,3.05
2023-05-01T09:21:55.944Z,2.80
2023-05-01T09:25:38.632Z,3.05
2023-05-01T09:29:43.866Z,3.20
2023-05-01T09:33:25.829Z,2.70
2023-05-01T09:37:07.636Z,2.97
2023-05-01T09:40:49.824Z,2.42
2023-05-01T09:44:31.628Z,2.75
2023-05-01T09:48:13.586Z,3.10
2023-05-01T09:52:11.414Z,3.53
2023-05-01T09:56:03.018Z,3.08
2023-05-01T10:00:02.466Z,3.05
2023-05-01T10:03:46.231Z,3.35
2023-05-01T10:07:29.279Z,2.97
2023-05-01T10:11:11.104Z,2.95
2023-05-01T10:14:54.133Z,3.20
2023-05-01T10:18:36.493Z,3.17
2023-05-01T10:22:18.296Z,3.53
2023-05-01T10:26:03.626Z,3.15
2023-05-01T10:29:47.996Z,3.25
2023-05-01T10:33:29.741Z,3.28
2023-05-01T10:37:19.724Z,3.25
2023-05-01T10:41:01.483Z,3.05
2023-05-01T10:44:43.633Z,2.80
2023-05-01T10:48:40.779Z,2.50
2023-05-01T10:52:22.529Z,3.08
2023-05-01T10:56:07.561Z,2.83
2023-05-01T11:00:05.149Z,2.80
2023-05-01T11:03:46.893Z,2.70
2023-05-01T11:07:28.848Z,2.75
2023-05-01T11:11:25.445Z,3.00
2023-05-01T11:15:08.614Z,2.60
2023-05-01T11:18:50.820Z,2.95
2023-05-01T11:22:36.972Z,2.25
2023-05-01T11:26:22.360Z,2.80
2023-05-01T11:30:04.523Z,2.50
2023-05-01T11:33:46.581Z,2.13
2023-05-01T11:37:44.506Z,2.10
2023-05-01T11:41:27.154Z,2.10
2023-05-01T11:45:12.478Z,2.30
2023-05-01T11:48:59.084Z,2.83
2023-05-01T11:52:49.647Z,2.53
2023-05-01T11:56:32.890Z,2.47
2023-05-01T12:00:16.485Z,2.70
2023-05-01T12:03:58.419Z,2.63
2023-05-01T12:07:40.469Z,1.75
2023-05-01T12:11:24.071Z,2.20
2023-05-01T12:15:06.313Z,2.15
2023-05-01T12:18:48.392Z,1.77
2023-05-01T12:22:30.355Z,1.73
2023-05-01T12:26:28.080Z,1.47
2023-05-01T12:30:10.391Z,1.30
2023-05-01T12:34:03.567Z,1.50
2023-05-01T12:37:45.376Z,1.48
2023-05-01T12:41:34.246Z,1.70
2023-05-01T12:45:16.021Z,1.75
2023-05-01T12:48:57.840Z,1.53
2023-05-01T12:52:39.827Z,1.50
2023-05-01T12:56:23.836Z,1.60
2023-05-01T13:00:06.460Z,1.60
2023-05-01T13:07:29.960Z,1.70
2023-05-01T13:11:14.077Z,1.90
2023-05-01T13:14:56.050Z,1.40
2023-05-01T13:18:52.103Z,1.30
2023-05-01T13:22:38.827Z,1.40
2023-05-01T13:26:27.466Z,1.33
2023-05-01T13:30:10.742Z,1.30
2023-05-01T13:33:54.224Z,1.55
2023-05-01T13:37:36.530Z,1.75
2023-05-01T13:41:19.789Z,1.42
2023-05-01T13:45:05.640Z,1.20
2023-05-01T13:48:47.701Z,1.40
2023-05-01T13:52:29.571Z,1.40
2023-05-01T13:56:15.243Z,1.40
2023-05-01T13:59:57.013Z,1.30
2023-05-01T14:03:41.442Z,1.30
2023-05-01T14:07:25.169Z,1.88
2023-05-01T14:11:08.558Z,2.35
2023-05-01T14:14:50.332Z,1.55
2023-05-01T14:18:32.545Z,1.67
2023-05-01T14:22:14.248Z,1.67
2023-05-01T14:25:56.178Z,1.50
2023-05-01T14:29:43.733Z,1.57
2023-05-01T14:33:26.745Z,1.88
2023-05-01T14:37:10.046Z,1.80
2023-05-01T14:40:52.130Z,1.70
2023-05-01T14:44:33.912Z,1.50
2023-05-01T14:48:36.638Z,1.42
2023-05-01T14:52:21.474Z,1.60
2023-05-01T14:56:03.193Z,1.52
2023-05-01T14:59:44.934Z,1.60
2023-05-01T15:03:27.218Z,1.58
2023-05-01T15:07:09.051Z,1.77
2023-05-01T15:10:52.904Z,1.73
2023-05-01T15:14:34.589Z,1.50
2023-05-01T15:18:16.500Z,1.42
2023-05-01T15:21:59.087Z,1.93
2023-05-01T15:25:43.742Z,1.67
2023-05-01T15:29:25.533Z,1.70
2023-05-01T15:33:07.379Z,2.35
2023-05-01T15:36:50.666Z,2.53
2023-05-01T15:40:33.501Z,1.88
2023-05-01T15:47:57.883Z,1.50
2023-05-01T15:51:39.671Z,1.60
2023-05-01T15:55:21.955Z,1.65
2023-05-01T15:59:07.731Z,1.88
2023-05-01T16:02:52.930Z,1.73
2023-05-01T16:06:35.724Z,1.80
2023-05-01T16:10:17.502Z,1.92
2023-05-01T16:13:59.361Z,1.70
2023-05-01T16:17:46.674Z,1.70
2023-05-01T16:21:28.870Z,1.67
2023-05-01T16:25:11.282Z,2.57
2023-05-01T16:28:58.589Z,2.25
2023-05-01T16:32:41.130Z,1.70
2023-05-01T16:36:22.861Z,1.75
2023-05-01T16:40:07.460Z,1.60
2023-05-01T16:43:49.353Z,2.20
2023-05-01T16:47:32.300Z,1.67
2023-05-01T16:51:14.049Z,2.42
2023-05-01T16:54:56.434Z,1.55
2023-05-01T16:58:38.426Z,1.70
2023-05-01T17:02:20.298Z,1.70
2023-05-01T17:06:02.165Z,1.73
2023-05-01T17:09:43.954Z,2.03
2023-05-01T17:13:25.707Z,2.10
2023-05-01T17:17:09.622Z,2.30
2023-05-01T17:20:51.941Z,2.63
2023-05-01T17:24:35.135Z,2.55
2023-05-01T17:28:16.807Z,1.77
2023-05-01T17:31:58.627Z,1.95
2023-05-01T17:35:40.385Z,2.00
2023-05-01T17:39:22.333Z,2.10
2023-05-01T17:43:04.286Z,1.67
2023-05-01T17:46:45.981Z,2.10
2023-05-01T17:50:28.051Z,2.00
2023-05-01T17:54:10.885Z,1.65
2023-05-01T18:01:34.715Z,2.67
2023-05-01T18:05:16.570Z,1.83
2023-05-01T18:08:58.391Z,1.77
2023-05-01T18:12:40.176Z,1.52
2023-05-01T18:16:23.296Z,1.42
2023-05-01T18:20:05.485Z,1.92
2023-05-01T18:23:48.639Z,1.80
2023-05-01T18:27:30.710Z,1.80
2023-05-01T18:31:14.274Z,2.35
2023-05-01T18:34:56.691Z,1.70
2023-05-01T18:38:38.423Z,1.60
2023-05-01T18:42:20.418Z,1.90
2023-05-01T18:46:02.202Z,1.60
2023-05-01T18:49:43.912Z,1.90
2023-05-01T18:53:26.054Z,1.90
2023-05-01T18:57:07.810Z,3.28
2023-05-01T19:00:49.718Z,1.80
2023-05-01T19:04:45.745Z,10.65
2023-05-01T19:08:37.573Z,3.05
2023-05-01T19:12:19.312Z,2.13
2023-05-01T19:16:01.093Z,1.70
2023-05-01T19:19:42.891Z,1.92
2023-05-01T19:23:24.686Z,2.20
2023-05-01T19:27:06.431Z,3.40
2023-05-01T19:30:48.417Z,5.28
2023-05-01T19:34:30.142Z,7.17
2023-05-01T19:38:11.852Z,3.90
2023-05-01T19:41:53.935Z,2.50
2023-05-01T19:45:36.312Z,2.50
2023-05-01T19:49:18.019Z,2.03
2023-05-01T19:52:59.830Z,4.15
2023-05-01T19:56:41.586Z,2.10
2023-05-01T20:00:23.367Z,2.03
2023-05-01T20:04:05.236Z,3.00
2023-05-01T20:07:47.105Z,3.10
2023-05-01T20:11:29.335Z,5.22
2023-05-01T20:15:12.030Z,2.90
2023-05-01T20:18:53.764Z,2.70
2023-05-01T20:22:37.857Z,2.28
2023-05-01T20:26:19.776Z,2.10
2023-05-01T20:30:07.421Z,2.13
2023-05-01T20:33:49.121Z,1.80
2023-05-01T20:37:31.205Z,3.05
2023-05-01T20:41:13.165Z,4.43
2023-05-01T20:44:55.102Z,16.65
2023-05-01T20:48:36.822Z,10.82
2023-05-01T20:52:18.526Z,4.32
2023-05-01T20:56:00.247Z,3.13
2023-05-01T20:59:49.972Z,2.55
2023-05-01T21:03:32.918Z,2.50
2023-05-01T21:10:56.940Z,2.40
2023-05-01T21:14:39.733Z,2.67
2023-05-01T21:18:21.503Z,2.97
2023-05-01T21:22:03.657Z,1.98
2023-05-01T21:25:45.435Z,2.05
2023-05-01T21:29:28.335Z,2.20
2023-05-01T21:33:14.692Z,3.47
2023-05-01T21:36:56.535Z,2.72
2023-05-01T21:40:41.502Z,3.05
2023-05-01T21:44:28.355Z,2.78
2023-05-01T21:48:14.449Z,2.92
2023-05-01T21:52:00.637Z,2.50
2023-05-01T21:55:46.439Z,2.33
2023-05-01T21:59:34.796Z,2.17
2023-05-01T22:03:18.040Z,2.92
2023-05-01T22:06:59.887Z,4.18
2023-05-01T22:10:42.979Z,5.07
2023-05-01T22:18:22.801Z,5.53
2023-05-01T22:22:04.615Z,6.45
2023-05-01T22:25:46.346Z,4.63
2023-05-01T22:29:28.183Z,6.90
2023-05-01T22:33:10.853Z,5.28
2023-05-01T22:36:52.860Z,4.53
2023-05-01T22:40:34.759Z,3.45
2023-05-01T22:44:16.458Z,2.45
2023-05-01T22:47:58.271Z,2.60
2023-05-01T22:51:40.060Z,2.47
2023-05-01T22:55:21.863Z,3.25
2023-05-01T22:59:03.613Z,2.50
2023-05-01T23:02:45.697Z,3.08
2023-05-01T23:06:27.915Z,3.00
2023-05-01T23:10:10.594Z,3.07
2023-05-01T23:13:52.303Z,2.53
2023-05-01T23:17:35.544Z,3.10
2023-05-01T23:24:59.936Z,2.72
2023-05-01T23:28:43.133Z,2.92
2023-05-01T23:36:12.679Z,2.83
2023-05-01T23:39:54.498Z,2.53
2023-05-01T23:43:37.875Z,3.05
2023-05-01T23:47:20.417Z,2.90
2023-05-01T23:51:02.961Z,2.55
2023-05-01T23:54:44.741Z,2.75
2023-05-01T23:58:26.455Z,2.45
